createdAt,value
2017-09-28T00:02:26.718Z,15.30
2017-09-28T00:04:54.177Z,15.40
2017-09-28T00:07:21.625Z,15.40
2017-09-28T00:09:49.072Z,15.40
2017-09-28T00:12:17.289Z,15.50
2017-09-28T00:14:44.733Z,15.40
2017-09-28T00:17:12.190Z,15.50
2017-09-28T00:19:39.652Z,15.40
2017-09-28T00:22:07.864Z,15.40
2017-09-28T00:24:35.299Z,15.40
2017-09-28T00:27:04.924Z,15.40
2017-09-28T00:29:32.386Z,15.40
2017-09-28T00:31:59.838Z,15.40
2017-09-28T00:34:27.299Z,15.40
2017-09-28T00:36:54.774Z,15.40
2017-09-28T00:39:22.212Z,15.30
2017-09-28T00:41:50.426Z,15.30
2017-09-28T00:44:17.870Z,15.30
2017-09-28T00:46:45.325Z,15.30
2017-09-28T00:49:12.773Z,15.30
2017-09-28T00:51:40.989Z,15.10
2017-09-28T00:54:08.451Z,15.10
2017-09-28T00:56:35.909Z,15.00
2017-09-28T00:59:03.378Z,15.00
2017-09-28T01:01:30.833Z,15.00
2017-09-28T01:03:58.279Z,15.00
2017-09-28T01:06:25.721Z,15.00
2017-09-28T01:08:53.944Z,14.90
2017-09-28T01:11:21.404Z,14.90
2017-09-28T01:13:48.868Z,14.90
2017-09-28T01:16:16.330Z,14.80
2017-09-28T01:18:43.782Z,14.80
2017-09-28T01:21:11.236Z,14.80
2017-09-28T01:23:38.680Z,14.80
2017-09-28T01:26:06.917Z,14.90
2017-09-28T01:28:34.362Z,14.90
2017-09-28T01:31:01.837Z,14.90
2017-09-28T01:33:29.295Z,14.90
2017-09-28T01:35:56.736Z,14.90
2017-09-28T01:38:24.190Z,14.90
2017-09-28T01:40:52.398Z,14.90
2017-09-28T01:43:19.853Z,14.80
2017-09-28T01:45:47.315Z,14.80
2017-09-28T01:48:14.754Z,14.80
2017-09-28T01:50:42.983Z,14.80
2017-09-28T01:53:10.433Z,14.80
2017-09-28T01:55:37.898Z,14.90
2017-09-28T01:58:05.329Z,14.90
2017-09-28T02:00:32.792Z,14.90
2017-09-28T02:03:01.005Z,14.90
2017-09-28T02:05:28.476Z,14.90
2017-09-28T02:07:55.914Z,14.90
2017-09-28T02:10:23.365Z,14.80
2017-09-28T02:12:50.804Z,14.80
2017-09-28T02:15:19.004Z,14.80
2017-09-28T02:17:46.461Z,14.70
2017-09-28T02:20:13.905Z,14.70
2017-09-28T02:22:42.134Z,14.70
2017-09-28T02:25:09.586Z,14.60
2017-09-28T02:27:37.046Z,14.60
2017-09-28T02:30:04.485Z,14.60
2017-09-28T02:32:32.731Z,14.60
2017-09-28T02:35:00.173Z,14.60
2017-09-28T02:37:27.618Z,14.70
2017-09-28T02:39:55.077Z,14.70
2017-09-28T02:42:22.532Z,14.70
2017-09-28T02:44:49.991Z,14.70
2017-09-28T02:47:17.447Z,14.60
2017-09-28T02:49:44.914Z,14.70
2017-09-28T02:52:12.362Z,14.70
2017-09-28T02:54:40.606Z,14.70
2017-09-28T02:57:10.970Z,14.70
2017-09-28T02:59:39.181Z,14.70
2017-09-28T03:02:06.630Z,14.70
2017-09-28T03:04:34.085Z,14.70
2017-09-28T03:07:01.529Z,14.70
2017-09-28T03:09:29.757Z,14.60
2017-09-28T03:11:57.237Z,14.60
2017-09-28T03:14:24.703Z,14.60
2017-09-28T03:16:52.165Z,14.60
2017-09-28T03:19:19.613Z,14.60
2017-09-28T03:21:47.061Z,14.60
2017-09-28T03:24:14.546Z,14.60
2017-09-28T03:26:41.994Z,14.60
2017-09-28T03:29:09.454Z,14.60
2017-09-28T03:31:36.891Z,14.60
2017-09-28T03:34:05.121Z,14.60
2017-09-28T03:36:32.577Z,14.60
2017-09-28T03:39:00.018Z,14.60
2017-09-28T03:41:27.483Z,14.60
2017-09-28T03:43:54.942Z,14.60
2017-09-28T03:46:22.387Z,14.60
2017-09-28T03:48:49.847Z,14.60
2017-09-28T03:51:18.064Z,14.50
2017-09-28T03:53:45.514Z,14.40
2017-09-28T03:56:12.977Z,14.50
2017-09-28T03:58:40.432Z,14.50
2017-09-28T04:01:07.885Z,14.50
2017-09-28T04:03:35.346Z,14.50
2017-09-28T04:06:02.784Z,14.50
2017-09-28T04:08:30.244Z,14.50
2017-09-28T04:10:57.700Z,14.50
2017-09-28T04:13:25.182Z,14.50
2017-09-28T04:15:53.393Z,14.50
2017-09-28T04:18:20.846Z,14.40
2017-09-28T04:20:48.296Z,14.40
2017-09-28T04:23:16.542Z,14.40
2017-09-28T04:25:44.746Z,14.40
2017-09-28T04:28:12.957Z,14.40
2017-09-28T04:30:40.418Z,14.40
2017-09-28T04:33:07.883Z,14.40
2017-09-28T04:35:35.327Z,14.40
2017-09-28T04:38:03.541Z,14.40
2017-09-28T04:40:31.007Z,14.40
2017-09-28T04:42:58.450Z,14.40
2017-09-28T04:45:25.907Z,14.40
2017-09-28T04:47:53.353Z,14.50
2017-09-28T04:50:21.585Z,14.50
2017-09-28T04:52:49.049Z,14.40
2017-09-28T04:55:16.500Z,14.50
2017-09-28T04:57:43.944Z,14.50
2017-09-28T05:00:11.412Z,14.50
2017-09-28T05:02:38.875Z,14.50
2017-09-28T05:05:06.344Z,14.40
2017-09-28T05:07:33.798Z,14.40
2017-09-28T05:10:01.258Z,14.40
2017-09-28T05:12:28.691Z,14.40
2017-09-28T05:14:56.917Z,14.40
2017-09-28T05:17:24.362Z,14.40
2017-09-28T05:19:51.840Z,14.40
2017-09-28T05:22:19.283Z,14.40
2017-09-28T05:24:46.750Z,14.40
2017-09-28T05:27:14.213Z,14.40
2017-09-28T05:29:41.689Z,14.40
2017-09-28T05:32:09.150Z,14.50
2017-09-28T05:34:36.585Z,14.50
2017-09-28T05:37:04.059Z,14.50
2017-09-28T05:39:31.520Z,14.50
2017-09-28T05:41:58.983Z,14.50
2017-09-28T05:44:26.440Z,14.40
2017-09-28T05:46:53.898Z,14.50
2017-09-28T05:49:21.356Z,14.50
2017-09-28T05:51:49.589Z,14.50
2017-09-28T05:54:17.031Z,14.40
2017-09-28T05:56:44.496Z,14.40
2017-09-28T05:59:11.958Z,14.40
2017-09-28T06:01:39.393Z,14.40
2017-09-28T06:04:06.855Z,14.40
2017-09-28T06:06:34.301Z,14.40
2017-09-28T06:09:02.523Z,14.40
2017-09-28T06:11:29.970Z,14.40
2017-09-28T06:13:57.437Z,14.40
2017-09-28T06:16:24.890Z,14.40
2017-09-28T06:18:52.337Z,14.50
2017-09-28T06:21:20.554Z,14.50
2017-09-28T06:23:48.028Z,14.60
2017-09-28T06:26:15.470Z,14.60
2017-09-28T06:28:42.947Z,14.60
2017-09-28T06:31:10.394Z,14.60
2017-09-28T06:33:37.856Z,14.60
2017-09-28T06:36:05.314Z,14.60
2017-09-28T06:38:32.784Z,14.60
2017-09-28T06:41:00.244Z,14.60
2017-09-28T06:43:27.703Z,14.60
2017-09-28T06:45:55.162Z,14.60
2017-09-28T06:48:22.608Z,14.60
2017-09-28T06:50:50.834Z,14.60
2017-09-28T06:53:18.294Z,14.70
2017-09-28T06:55:45.742Z,14.70
2017-09-28T06:58:13.293Z,14.70
2017-09-28T07:00:40.741Z,14.70
2017-09-28T07:03:08.953Z,14.80
2017-09-28T07:05:36.402Z,14.80
2017-09-28T07:08:03.845Z,14.80
2017-09-28T07:10:32.068Z,14.90
2017-09-28T07:12:59.513Z,14.90
2017-09-28T07:15:26.976Z,14.90
2017-09-28T07:17:54.427Z,14.90
2017-09-28T07:20:21.884Z,15.00
2017-09-28T07:22:49.349Z,15.00
2017-09-28T07:25:16.802Z,15.00
2017-09-28T07:27:45.014Z,15.00
2017-09-28T07:30:12.467Z,15.00
2017-09-28T07:32:39.914Z,15.10
2017-09-28T07:35:07.376Z,15.00
2017-09-28T07:37:35.617Z,15.00
2017-09-28T07:40:03.072Z,15.00
2017-09-28T07:42:31.293Z,15.00
2017-09-28T07:44:59.516Z,15.00
2017-09-28T07:47:26.968Z,15.00
2017-09-28T07:49:55.085Z,15.10
2017-09-28T07:52:22.863Z,15.00
2017-09-28T07:54:51.354Z,15.00
2017-09-28T07:57:19.340Z,15.00
2017-09-28T07:59:47.651Z,15.10
2017-09-28T08:02:15.148Z,15.10
2017-09-28T08:04:43.447Z,15.10
2017-09-28T08:07:11.012Z,15.20
2017-09-28T08:09:38.481Z,15.20
2017-09-28T08:12:06.441Z,15.30
2017-09-28T08:14:34.990Z,15.30
2017-09-28T08:17:02.797Z,15.30
2017-09-28T08:19:31.408Z,15.30
2017-09-28T08:22:00.074Z,15.40
2017-09-28T08:24:28.030Z,15.40
2017-09-28T08:26:56.312Z,15.40
2017-09-28T08:29:23.813Z,15.50
2017-09-28T08:31:51.456Z,15.50
2017-09-28T08:34:19.030Z,15.50
2017-09-28T08:36:47.075Z,15.50
2017-09-28T08:39:14.526Z,15.60
2017-09-28T08:41:41.978Z,15.60
2017-09-28T08:44:11.177Z,15.60
2017-09-28T08:46:40.181Z,15.70
2017-09-28T08:49:08.710Z,15.70
2017-09-28T08:51:36.750Z,15.70
2017-09-28T08:54:04.553Z,15.80
2017-09-28T08:56:32.624Z,15.80
2017-09-28T08:59:00.605Z,15.80
2017-09-28T09:01:28.751Z,15.90
2017-09-28T09:03:56.930Z,15.90
2017-09-28T09:06:25.026Z,16.00
2017-09-28T09:08:53.213Z,16.10
2017-09-28T09:11:21.572Z,16.10
2017-09-28T09:13:49.700Z,16.20
2017-09-28T09:16:17.139Z,16.30
2017-09-28T09:18:46.281Z,16.30
2017-09-28T09:21:15.237Z,16.40
2017-09-28T09:23:43.182Z,16.40
2017-09-28T09:26:11.024Z,16.50
2017-09-28T09:28:39.445Z,16.60
2017-09-28T09:31:07.376Z,16.60
2017-09-28T09:33:35.657Z,16.70
2017-09-28T09:36:03.565Z,16.60
2017-09-28T09:38:31.002Z,16.70
2017-09-28T09:40:59.217Z,16.90
2017-09-28T09:43:26.806Z,16.80
2017-09-28T09:45:54.294Z,16.90
2017-09-28T09:48:21.757Z,16.90
2017-09-28T09:50:49.233Z,17.00
2017-09-28T09:53:17.470Z,17.10
2017-09-28T09:55:44.922Z,17.00
2017-09-28T09:58:12.379Z,17.10
2017-09-28T10:00:39.829Z,17.10
2017-09-28T10:03:07.288Z,17.20
2017-09-28T10:05:34.729Z,17.30
2017-09-28T10:08:06.356Z,17.40
2017-09-28T10:10:39.765Z,17.40
2017-09-28T10:13:12.193Z,17.50
2017-09-28T10:15:44.833Z,17.60
2017-09-28T10:18:13.070Z,17.60
2017-09-28T10:20:40.529Z,17.60
2017-09-28T10:23:08.002Z,17.70
2017-09-28T10:25:35.463Z,17.70
2017-09-28T10:28:02.914Z,17.80
2017-09-28T10:30:30.371Z,17.90
2017-09-28T10:32:57.820Z,17.90
2017-09-28T10:35:25.262Z,17.90
2017-09-28T10:37:53.498Z,18.00
2017-09-28T10:40:20.974Z,18.00
2017-09-28T10:42:48.419Z,18.10
2017-09-28T10:45:15.871Z,18.10
2017-09-28T10:47:43.322Z,18.20
2017-09-28T10:50:10.781Z,18.20
2017-09-28T10:52:38.254Z,18.20
2017-09-28T10:55:05.733Z,18.20
2017-09-28T10:57:33.214Z,18.30
2017-09-28T11:00:00.653Z,18.30
2017-09-28T11:02:28.106Z,18.30
2017-09-28T11:04:55.551Z,18.30
2017-09-28T11:07:22.996Z,18.40
2017-09-28T11:09:51.229Z,18.50
2017-09-28T11:12:18.681Z,18.50
2017-09-28T11:14:46.143Z,18.50
2017-09-28T11:17:13.617Z,18.60
2017-09-28T11:19:41.066Z,18.60
2017-09-28T11:22:08.527Z,18.60
2017-09-28T11:24:35.981Z,18.70
2017-09-28T11:27:03.433Z,18.70
2017-09-28T11:29:30.883Z,18.80
2017-09-28T11:31:58.325Z,18.80
2017-09-28T11:34:26.542Z,18.80
2017-09-28T11:36:53.973Z,18.80
2017-09-28T11:39:22.231Z,18.90
2017-09-28T11:41:49.680Z,18.90
2017-09-28T11:44:17.111Z,18.90
2017-09-28T11:46:44.572Z,19.00
2017-09-28T11:49:12.015Z,19.00
2017-09-28T11:51:40.225Z,19.10
2017-09-28T11:54:07.681Z,19.10
2017-09-28T11:56:35.125Z,19.20
2017-09-28T11:59:02.557Z,19.20
2017-09-28T12:01:30.023Z,19.30
2017-09-28T12:03:57.450Z,19.40
2017-09-28T12:06:24.909Z,19.50
2017-09-28T12:08:52.354Z,19.70
2017-09-28T12:11:19.800Z,19.90
2017-09-28T12:13:47.269Z,20.10
2017-09-28T12:16:15.469Z,20.40
2017-09-28T12:18:42.910Z,20.40
2017-09-28T12:21:10.347Z,20.70
2017-09-28T12:23:38.562Z,21.20
2017-09-28T12:26:05.998Z,21.20
2017-09-28T12:28:34.212Z,21.30
2017-09-28T12:31:01.647Z,21.30
2017-09-28T12:33:29.892Z,21.30
2017-09-28T12:35:57.329Z,21.30
2017-09-28T12:38:24.779Z,21.30
2017-09-28T12:40:52.233Z,21.40
2017-09-28T12:43:19.667Z,21.40
2017-09-28T12:45:47.898Z,21.50
2017-09-28T12:48:15.337Z,21.50
2017-09-28T12:50:42.781Z,21.60
2017-09-28T12:53:10.993Z,21.60
2017-09-28T12:55:38.459Z,21.60
2017-09-28T12:58:05.902Z,21.60
2017-09-28T13:00:33.368Z,21.60
2017-09-28T13:03:00.819Z,21.60
2017-09-28T13:05:28.257Z,21.60
2017-09-28T13:07:56.477Z,21.60
2017-09-28T13:10:23.918Z,21.60
2017-09-28T13:12:52.149Z,21.60
2017-09-28T13:15:19.600Z,21.60
2017-09-28T13:17:47.054Z,21.60
2017-09-28T13:20:14.502Z,21.70
2017-09-28T13:22:41.956Z,21.70
2017-09-28T13:25:09.406Z,21.80
2017-09-28T13:27:37.649Z,21.90
2017-09-28T13:30:05.098Z,21.80
2017-09-28T13:32:32.539Z,21.90
2017-09-28T13:34:59.992Z,21.90
2017-09-28T13:37:27.441Z,21.90
2017-09-28T13:39:55.658Z,21.80
2017-09-28T13:42:23.108Z,21.80
2017-09-28T13:44:50.553Z,21.80
2017-09-28T13:47:18.004Z,21.80
2017-09-28T13:49:46.247Z,21.70
2017-09-28T13:52:16.602Z,21.70
2017-09-28T13:54:44.822Z,21.80
2017-09-28T13:57:12.280Z,21.70
2017-09-28T13:59:39.716Z,21.80
2017-09-28T14:02:07.930Z,21.90
2017-09-28T14:04:35.374Z,21.90
2017-09-28T14:07:02.821Z,22.10
2017-09-28T14:09:31.035Z,22.50
2017-09-28T14:11:58.477Z,22.40
2017-09-28T14:14:25.918Z,22.60
2017-09-28T14:16:54.154Z,22.60
2017-09-28T14:19:21.619Z,22.60
2017-09-28T14:21:49.892Z,22.60
2017-09-28T14:24:17.384Z,22.60
2017-09-28T14:26:44.831Z,22.60
2017-09-28T14:29:12.301Z,22.70
2017-09-28T14:31:39.733Z,22.70
2017-09-28T14:34:07.198Z,22.80
2017-09-28T14:36:34.639Z,22.70
2017-09-28T14:39:02.074Z,22.70
2017-09-28T14:41:30.298Z,22.40
2017-09-28T14:43:57.759Z,22.40
2017-09-28T14:46:25.213Z,22.30
2017-09-28T14:48:52.663Z,22.30
2017-09-28T14:51:20.116Z,22.20
2017-09-28T14:53:48.311Z,22.10
2017-09-28T14:56:15.762Z,22.10
2017-09-28T14:58:43.982Z,22.00
2017-09-28T15:01:11.439Z,22.00
2017-09-28T15:03:38.891Z,21.90
2017-09-28T15:06:06.353Z,21.90
2017-09-28T15:08:33.800Z,21.90
2017-09-28T15:11:02.031Z,21.80
2017-09-28T15:13:29.470Z,21.80
2017-09-28T15:15:56.907Z,21.70
2017-09-28T15:18:24.353Z,21.70
2017-09-28T15:20:52.618Z,21.60
2017-09-28T15:23:20.072Z,21.60
2017-09-28T15:25:47.530Z,21.60
2017-09-28T15:28:14.973Z,21.60
2017-09-28T15:30:42.419Z,21.60
2017-09-28T15:33:09.880Z,21.50
2017-09-28T15:35:37.320Z,21.50
2017-09-28T15:38:05.540Z,21.50
2017-09-28T15:40:32.986Z,21.50
2017-09-28T15:43:03.738Z,21.40
2017-09-28T15:45:31.238Z,21.50
2017-09-28T15:47:58.678Z,21.40
2017-09-28T15:50:26.139Z,21.40
2017-09-28T15:52:53.588Z,21.40
2017-09-28T15:55:21.069Z,21.30
2017-09-28T15:57:48.519Z,21.30
2017-09-28T16:00:15.970Z,21.30
2017-09-28T16:02:43.433Z,21.30
2017-09-28T16:05:10.861Z,21.30
2017-09-28T16:07:39.068Z,21.20
2017-09-28T16:10:06.508Z,21.20
2017-09-28T16:12:35.865Z,21.20
2017-09-28T16:15:03.320Z,21.20
2017-09-28T16:17:30.790Z,21.10
2017-09-28T16:19:58.218Z,21.10
2017-09-28T16:22:25.657Z,21.10
2017-09-28T16:24:53.860Z,21.00
2017-09-28T16:27:21.307Z,21.00
2017-09-28T16:29:48.743Z,21.00
2017-09-28T16:32:16.188Z,21.00
2017-09-28T16:34:43.628Z,21.00
2017-09-28T16:37:11.075Z,20.90
2017-09-28T16:39:38.521Z,20.90
2017-09-28T16:42:05.957Z,21.00
2017-09-28T16:44:33.425Z,20.90
2017-09-28T16:47:01.623Z,20.90
2017-09-28T16:49:29.066Z,20.90
2017-09-28T16:51:57.282Z,20.90
2017-09-28T16:54:24.718Z,20.80
2017-09-28T16:56:52.948Z,20.80
2017-09-28T16:59:20.386Z,20.80
2017-09-28T17:01:47.848Z,20.80
2017-09-28T17:04:15.295Z,20.80
2017-09-28T17:06:42.786Z,20.80
2017-09-28T17:09:10.237Z,20.80
2017-09-28T17:11:37.676Z,20.70
2017-09-28T17:14:05.901Z,20.70
2017-09-28T17:16:33.336Z,20.70
2017-09-28T17:19:00.850Z,20.70
2017-09-28T17:21:28.302Z,20.70
2017-09-28T17:23:55.750Z,20.60
2017-09-28T17:26:23.177Z,20.60
2017-09-28T17:28:50.625Z,20.60
2017-09-28T17:31:18.844Z,20.50
2017-09-28T17:33:46.305Z,20.50
2017-09-28T17:36:13.767Z,20.50
2017-09-28T17:38:41.198Z,20.50
2017-09-28T17:41:09.408Z,20.40
2017-09-28T17:43:36.849Z,20.40
2017-09-28T17:46:07.479Z,20.40
2017-09-28T17:48:35.695Z,20.40
2017-09-28T17:51:03.143Z,19.70
2017-09-28T17:53:30.578Z,20.40
2017-09-28T17:55:58.790Z,20.30
2017-09-28T17:58:26.248Z,20.30
2017-09-28T18:00:53.715Z,20.30
2017-09-28T18:03:21.163Z,20.30
2017-09-28T18:05:48.603Z,20.20
2017-09-28T18:08:16.814Z,20.20
2017-09-28T18:10:44.253Z,20.10
2017-09-28T18:13:12.480Z,20.10
2017-09-28T18:15:39.929Z,20.10
2017-09-28T18:18:07.370Z,20.10
2017-09-28T18:20:34.809Z,20.10
2017-09-28T18:23:02.279Z,20.00
2017-09-28T18:25:30.490Z,20.00
2017-09-28T18:27:57.928Z,20.00
2017-09-28T18:30:26.136Z,19.90
2017-09-28T18:32:53.597Z,20.00
2017-09-28T18:35:21.062Z,19.90
2017-09-28T18:37:48.493Z,19.90
2017-09-28T18:40:16.701Z,19.90
2017-09-28T18:42:44.151Z,19.80
2017-09-28T18:45:11.591Z,19.90
2017-09-28T18:47:39.800Z,19.80
2017-09-28T18:50:07.253Z,19.80
2017-09-28T18:52:34.686Z,19.80
2017-09-28T18:55:02.123Z,19.80
2017-09-28T18:57:29.552Z,19.70
2017-09-28T18:59:56.992Z,19.70
2017-09-28T19:02:25.201Z,19.70
2017-09-28T19:04:52.659Z,19.70
2017-09-28T19:07:20.093Z,19.70
2017-09-28T19:09:48.303Z,19.60
2017-09-28T19:12:15.757Z,19.60
2017-09-28T19:14:43.216Z,19.60
2017-09-28T19:17:10.669Z,19.60
2017-09-28T19:19:38.904Z,19.60
2017-09-28T19:22:06.338Z,19.60
2017-09-28T19:24:33.788Z,19.50
2017-09-28T19:27:01.224Z,19.50
2017-09-28T19:29:29.430Z,19.50
2017-09-28T19:31:56.893Z,19.50
2017-09-28T19:34:24.346Z,19.50
2017-09-28T19:36:51.817Z,19.50
2017-09-28T19:39:19.284Z,19.50
2017-09-28T19:41:46.717Z,19.50
2017-09-28T19:44:14.928Z,19.40
2017-09-28T19:46:42.372Z,19.40
2017-09-28T19:49:13.417Z,19.40
2017-09-28T19:51:40.867Z,19.40
2017-09-28T19:54:09.096Z,19.40
2017-09-28T19:56:36.558Z,19.40
2017-09-28T19:59:04.025Z,19.40
2017-09-28T20:01:31.464Z,19.40
2017-09-28T20:03:58.929Z,19.30
2017-09-28T20:06:26.373Z,19.30
2017-09-28T20:08:53.818Z,19.30
2017-09-28T20:11:22.047Z,19.30
2017-09-28T20:13:49.495Z,19.20
2017-09-28T20:16:16.954Z,19.20
2017-09-28T20:18:44.389Z,19.20
2017-09-28T20:21:12.601Z,19.20
2017-09-28T20:23:40.045Z,19.20
2017-09-28T20:26:07.507Z,19.20
2017-09-28T20:28:34.951Z,19.20
2017-09-28T20:31:03.162Z,19.20
2017-09-28T20:33:30.607Z,19.20
2017-09-28T20:35:58.061Z,19.20
2017-09-28T20:38:26.282Z,19.20
2017-09-28T20:40:53.732Z,19.20
2017-09-28T20:43:21.180Z,19.20
2017-09-28T20:45:48.628Z,19.10
2017-09-28T20:48:17.001Z,19.10
2017-09-28T20:50:44.462Z,19.10
2017-09-28T20:53:11.894Z,19.10
2017-09-28T20:55:39.348Z,19.10
2017-09-28T20:58:07.567Z,19.10
2017-09-28T21:00:35.021Z,19.00
2017-09-28T21:03:02.462Z,19.10
2017-09-28T21:05:29.914Z,19.00
2017-09-28T21:07:57.364Z,19.00
2017-09-28T21:10:24.836Z,19.00
2017-09-28T21:12:52.282Z,19.00
2017-09-28T21:15:19.746Z,19.00
2017-09-28T21:17:47.203Z,19.00
2017-09-28T21:20:14.659Z,18.90
2017-09-28T21:22:42.102Z,18.90
2017-09-28T21:25:10.310Z,18.90
2017-09-28T21:27:37.787Z,18.90
2017-09-28T21:30:05.222Z,18.90
2017-09-28T21:32:32.670Z,18.90
2017-09-28T21:35:00.913Z,18.90
2017-09-28T21:37:28.357Z,18.90
2017-09-28T21:39:55.794Z,18.90
2017-09-28T21:42:23.233Z,18.90
2017-09-28T21:44:51.452Z,18.90
2017-09-28T21:47:18.912Z,18.90
2017-09-28T21:49:46.361Z,18.80
2017-09-28T21:52:13.823Z,18.90
2017-09-28T21:54:41.279Z,18.80
2017-09-28T21:57:09.527Z,18.80
2017-09-28T21:59:36.962Z,18.80
2017-09-28T22:02:04.409Z,18.80
2017-09-28T22:04:31.862Z,18.80
2017-09-28T22:06:59.301Z,18.80
2017-09-28T22:09:27.510Z,18.80
2017-09-28T22:11:54.949Z,18.80
2017-09-28T22:14:23.178Z,18.70
2017-09-28T22:16:50.613Z,18.70
2017-09-28T22:19:18.067Z,18.70
2017-09-28T22:21:45.509Z,18.70
2017-09-28T22:24:13.754Z,18.70
2017-09-28T22:26:41.201Z,18.70
2017-09-28T22:29:08.654Z,18.70
2017-09-28T22:31:36.109Z,18.70
2017-09-28T22:34:03.573Z,18.70
2017-09-28T22:36:31.027Z,18.70
2017-09-28T22:38:58.460Z,18.70
2017-09-28T22:41:26.724Z,18.70
2017-09-28T22:43:54.125Z,18.70
2017-09-28T22:46:21.569Z,18.70
2017-09-28T22:48:49.813Z,18.70
2017-09-28T22:51:17.287Z,18.70
2017-09-28T22:53:44.726Z,18.70
2017-09-28T22:56:12.166Z,18.70
2017-09-28T22:58:39.614Z,18.70
2017-09-28T23:01:07.058Z,18.70
2017-09-28T23:03:35.281Z,18.60
2017-09-28T23:06:02.738Z,18.60
2017-09-28T23:08:30.178Z,18.60
2017-09-28T23:10:57.642Z,18.60
2017-09-28T23:13:25.875Z,18.60
2017-09-28T23:15:53.335Z,18.60
2017-09-28T23:18:20.773Z,18.60
2017-09-28T23:20:48.240Z,18.60
2017-09-28T23:23:15.690Z,18.60
2017-09-28T23:25:43.147Z,18.60
2017-09-28T23:28:10.582Z,18.60
2017-09-28T23:30:38.796Z,18.60
2017-09-28T23:33:06.243Z,18.60
2017-09-28T23:35:33.691Z,18.60
2017-09-28T23:38:01.903Z,18.50
2017-09-28T23:40:29.346Z,18.50
2017-09-28T23:42:56.798Z,18.50
2017-09-28T23:45:25.010Z,18.40
2017-09-28T23:47:52.472Z,18.40
2017-09-28T23:50:19.932Z,18.40
2017-09-28T23:52:47.377Z,18.40
2017-09-28T23:55:14.818Z,18.50
2017-09-28T23:57:42.253Z,18.50
